sensor_id;sensor_type;location;lat;lon;timestamp;pressure;altitude;pressure_sealevel;temperature;humidity
43326;BME280;28920;59.862;30.636;2023-02-26T15:57:42;51777.53;;;-147.45;98.48
43326;BME280;28920;59.862;30.636;2023-02-26T16:00:16;51761.34;;;-147.45;97.77
43326;BME280;28920;59.862;30.636;2023-02-26T16:02:49;51789.69;;;-147.45;96.74
43326;BME280;28920;59.862;30.636;2023-02-26T16:05:17;51761.34;;;-147.45;96.41
43326;BME280;28920;59.862;30.636;2023-02-26T16:07:45;51759.34;;;-147.45;96.28
43326;BME280;28920;59.862;30.636;2023-02-26T16:10:17;51761.34;;;-147.45;96.07
43326;BME280;28920;59.862;30.636;2023-02-26T16:12:46;51767.44;;;-147.45;95.88
43326;BME280;28920;59.862;30.636;2023-02-26T16:15:17;51767.44;;;-147.45;96.07
43326;BME280;28920;59.862;30.636;2023-02-26T16:17:48;51759.34;;;-147.45;96.16
43326;BME280;28920;59.862;30.636;2023-02-26T16:20:19;51775.53;;;-147.45;96.25
43326;BME280;28920;59.862;30.636;2023-02-26T16:22:49;51767.44;;;-147.45;96.24
43326;BME280;28920;59.862;30.636;2023-02-26T16:25:21;51757.31;;;-147.45;96.42
43326;BME280;28920;59.862;30.636;2023-02-26T16:27:55;51779.56;;;-147.45;96.60
43326;BME280;28920;59.862;30.636;2023-02-26T16:30:25;51755.28;;;-147.45;96.76
43326;BME280;28920;59.862;30.636;2023-02-26T16:32:54;51735.06;;;-147.45;96.83
43326;BME280;28920;59.862;30.636;2023-02-26T16:35:27;51735.06;;;-147.45;96.62
43326;BME280;28920;59.862;30.636;2023-02-26T16:37:57;51779.56;;;-147.45;97.08
43326;BME280;28920;59.862;30.636;2023-02-26T16:40:26;51743.16;;;-147.45;96.98
43326;BME280;28920;59.862;30.636;2023-02-26T16:42:59;51759.34;;;-147.45;96.73
43326;BME280;28920;59.862;30.636;2023-02-26T16:45:45;51763.37;;;-147.45;96.79
43326;BME280;28920;59.862;30.636;2023-02-26T16:48:17;51765.41;;;-147.45;96.69
43326;BME280;28920;59.862;30.636;2023-02-26T16:50:49;51761.34;;;-147.45;96.62
43326;BME280;28920;59.862;30.636;2023-02-26T16:53:20;51767.44;;;-147.45;96.22
43326;BME280;28920;59.862;30.636;2023-02-26T16:55:50;51773.50;;;-147.45;96.25
43326;BME280;28920;59.862;30.636;2023-02-26T16:58:20;60944.00;;;-147.45;100.00
43326;BME280;28920;59.862;30.636;2023-02-26T17:00:51;51773.28;;;-147.45;96.25
43326;BME280;28920;59.862;30.636;2023-02-26T17:03:24;60944.00;;;-147.45;100.00
43326;BME280;28920;59.862;30.636;2023-02-26T17:05:55;60944.00;;;-147.45;100.00
43326;BME280;28920;59.862;30.636;2023-02-26T17:08:26;60944.00;;;-147.45;100.00
43326;BME280;28920;59.862;30.636;2023-02-26T17:11:00;60944.00;;;-147.45;100.00
43326;BME280;28920;59.862;30.636;2023-02-26T17:13:30;60944.00;;;-147.45;100.00
43326;BME280;28920;59.862;30.636;2023-02-26T17:16:00;60944.00;;;-147.45;100.00
43326;BME280;28920;59.862;30.636;2023-02-26T17:18:27;60944.00;;;-147.45;100.00
43326;BME280;28920;59.862;30.636;2023-02-26T17:20:54;60944.00;;;-147.45;100.00
43326;BME280;28920;59.862;30.636;2023-02-26T17:23:23;60944.00;;;-147.45;100.00
43326;BME280;28920;59.862;30.636;2023-02-26T17:25:52;60944.00;;;-147.45;100.00
43326;BME280;28920;59.862;30.636;2023-02-26T17:28:23;60944.00;;;-147.45;100.00
43326;BME280;28920;59.862;30.636;2023-02-26T17:30:52;60944.00;;;-147.45;100.00
43326;BME280;28920;59.862;30.636;2023-02-26T17:33:20;60944.00;;;-147.45;100.00
43326;BME280;28920;59.862;30.636;2023-02-26T17:35:48;60944.00;;;-147.45;100.00
43326;BME280;28920;59.862;30.636;2023-02-26T17:38:15;60944.00;;;-147.45;100.00
43326;BME280;28920;59.862;30.636;2023-02-26T17:40:44;60944.00;;;-147.45;100.00
43326;BME280;28920;59.862;30.636;2023-02-26T17:43:13;60944.00;;;-147.45;100.00
43326;BME280;28920;59.862;30.636;2023-02-26T17:45:40;60944.00;;;-147.45;100.00
43326;BME280;28920;59.862;30.636;2023-02-26T17:48:10;60944.00;;;-147.45;100.00
43326;BME280;28920;59.862;30.636;2023-02-26T17:50:42;60944.00;;;-147.45;100.00
43326;BME280;28920;59.862;30.636;2023-02-26T17:53:09;60944.00;;;-147.45;100.00
43326;BME280;28920;59.862;30.636;2023-02-26T17:55:37;60944.00;;;-147.45;100.00
43326;BME280;28920;59.862;30.636;2023-02-26T17:58:06;60944.00;;;-147.45;100.00
43326;BME280;28920;59.862;30.636;2023-02-26T18:00:33;60944.00;;;-147.45;100.00
43326;BME280;28920;59.862;30.636;2023-02-26T18:03:05;60944.00;;;-147.45;100.00
43326;BME280;28920;59.862;30.636;2023-02-26T18:05:33;60944.00;;;-147.45;100.00
43326;BME280;28920;59.862;30.636;2023-02-26T18:08:04;60944.00;;;-147.45;100.00
43326;BME280;28920;59.862;30.636;2023-02-26T18:10:32;60944.00;;;-147.45;100.00
43326;BME280;28920;59.862;30.636;2023-02-26T18:12:59;60944.00;;;-147.45;100.00
43326;BME280;28920;59.862;30.636;2023-02-26T18:15:26;60944.00;;;-147.45;100.00
43326;BME280;28920;59.862;30.636;2023-02-26T18:17:54;60944.00;;;-147.45;100.00
43326;BME280;28920;59.862;30.636;2023-02-26T18:20:21;60944.00;;;-147.45;100.00
43326;BME280;28920;59.862;30.636;2023-02-26T18:22:49;60944.00;;;-147.45;100.00
43326;BME280;28920;59.862;30.636;2023-02-26T18:25:16;60944.00;;;-147.45;100.00
43326;BME280;28920;59.862;30.636;2023-02-26T18:27:46;60944.00;;;-147.45;100.00
43326;BME280;28920;59.862;30.636;2023-02-26T18:30:22;60944.00;;;-147.45;100.00
43326;BME280;28920;59.862;30.636;2023-02-26T18:32:49;60944.00;;;-147.45;100.00
43326;BME280;28920;59.862;30.636;2023-02-26T18:35:17;60944.00;;;-147.45;100.00
43326;BME280;28920;59.862;30.636;2023-02-26T18:37:45;60944.00;;;-147.45;100.00
43326;BME280;28920;59.862;30.636;2023-02-26T18:40:15;60944.00;;;-147.45;100.00
43326;BME280;28920;59.862;30.636;2023-02-26T18:42:43;60944.00;;;-147.45;100.00
43326;BME280;28920;59.862;30.636;2023-02-26T18:45:10;60944.00;;;-147.45;100.00
43326;BME280;28920;59.862;30.636;2023-02-26T18:47:38;60944.00;;;-147.45;100.00
43326;BME280;28920;59.862;30.636;2023-02-26T18:50:07;60944.00;;;-147.45;100.00
43326;BME280;28920;59.862;30.636;2023-02-26T18:52:36;60944.00;;;-147.45;100.00
43326;BME280;28920;59.862;30.636;2023-02-26T18:55:04;60944.00;;;-147.45;100.00
43326;BME280;28920;59.862;30.636;2023-02-26T18:57:32;60944.00;;;-147.45;100.00
43326;BME280;28920;59.862;30.636;2023-02-26T18:59:59;60944.00;;;-147.45;100.00
43326;BME280;28920;59.862;30.636;2023-02-26T19:02:26;60944.00;;;-147.45;100.00
43326;BME280;28920;59.862;30.636;2023-02-26T19:04:54;60944.00;;;-147.45;100.00
43326;BME280;28920;59.862;30.636;2023-02-26T19:07:21;60944.00;;;-147.45;100.00
43326;BME280;28920;59.862;30.636;2023-02-26T19:09:48;60944.00;;;-147.45;100.00
43326;BME280;28920;59.862;30.636;2023-02-26T19:12:15;60944.00;;;-147.45;100.00
43326;BME280;28920;59.862;30.636;2023-02-26T19:14:46;60944.00;;;-147.45;100.00
43326;BME280;28920;59.862;30.636;2023-02-26T19:17:13;60944.00;;;-147.45;100.00
43326;BME280;28920;59.862;30.636;2023-02-26T19:19:41;60944.00;;;-147.45;100.00
43326;BME280;28920;59.862;30.636;2023-02-26T19:22:08;60944.00;;;-147.45;100.00
43326;BME280;28920;59.862;30.636;2023-02-26T19:24:36;60944.00;;;-147.45;100.00
43326;BME280;28920;59.862;30.636;2023-02-26T19:27:03;60944.00;;;-147.45;100.00
43326;BME280;28920;59.862;30.636;2023-02-26T19:29:31;60944.00;;;-147.45;100.00
43326;BME280;28920;59.862;30.636;2023-02-26T19:32:00;60944.00;;;-147.45;100.00
43326;BME280;28920;59.862;30.636;2023-02-26T19:34:27;60944.00;;;-147.45;100.00
43326;BME280;28920;59.862;30.636;2023-02-26T19:36:54;60944.00;;;-147.45;100.00
43326;BME280;28920;59.862;30.636;2023-02-26T19:39:21;60944.00;;;-147.45;100.00
43326;BME280;28920;59.862;30.636;2023-02-26T19:41:49;60944.00;;;-147.45;100.00
43326;BME280;28920;59.862;30.636;2023-02-26T19:44:19;60944.00;;;-147.45;100.00
43326;BME280;28920;59.862;30.636;2023-02-26T19:46:46;60944.00;;;-147.45;100.00
43326;BME280;28920;59.862;30.636;2023-02-26T19:49:14;60944.00;;;-147.45;100.00
43326;BME280;28920;59.862;30.636;2023-02-26T19:51:42;60944.00;;;-147.45;100.00
43326;BME280;28920;59.862;30.636;2023-02-26T19:54:09;60944.00;;;-147.45;100.00
43326;BME280;28920;59.862;30.636;2023-02-26T19:56:38;60944.00;;;-147.45;100.00
43326;BME280;28920;59.862;30.636;2023-02-26T19:59:06;60944.00;;;-147.45;100.00
43326;BME280;28920;59.862;30.636;2023-02-26T20:01:33;60944.00;;;-147.45;100.00
43326;BME280;28920;59.862;30.636;2023-02-26T20:04:01;60944.00;;;-147.45;100.00
43326;BME280;28920;59.862;30.636;2023-02-26T20:06:29;60944.00;;;-147.45;100.00
43326;BME280;28920;59.862;30.636;2023-02-26T20:08:56;60944.00;;;-147.45;100.00
43326;BME280;28920;59.862;30.636;2023-02-26T20:11:23;60944.00;;;-147.45;100.00
43326;BME280;28920;59.862;30.636;2023-02-26T20:13:50;60944.00;;;-147.45;100.00
43326;BME280;28920;59.862;30.636;2023-02-26T20:16:18;60944.00;;;-147.45;100.00
43326;BME280;28920;59.862;30.636;2023-02-26T20:18:45;60944.00;;;-147.45;100.00
43326;BME280;28920;59.862;30.636;2023-02-26T20:21:14;60944.00;;;-147.45;100.00
43326;BME280;28920;59.862;30.636;2023-02-26T20:23:42;60944.00;;;-147.45;100.00
43326;BME280;28920;59.862;30.636;2023-02-26T20:26:11;60944.00;;;-147.45;100.00
43326;BME280;28920;59.862;30.636;2023-02-26T20:28:39;60944.00;;;-147.45;100.00
43326;BME280;28920;59.862;30.636;2023-02-26T20:31:06;60944.00;;;-147.45;100.00
43326;BME280;28920;59.862;30.636;2023-02-26T20:33:34;60944.00;;;-147.45;100.00
43326;BME280;28920;59.862;30.636;2023-02-26T20:36:03;60944.00;;;-147.45;100.00
43326;BME280;28920;59.862;30.636;2023-02-26T20:38:31;60944.00;;;-147.45;100.00
43326;BME280;28920;59.862;30.636;2023-02-26T20:41:00;60944.00;;;-147.45;100.00
43326;BME280;28920;59.862;30.636;2023-02-26T20:43:27;60944.00;;;-147.45;100.00
43326;BME280;28920;59.862;30.636;2023-02-26T20:45:54;60944.00;;;-147.45;100.00
43326;BME280;28920;59.862;30.636;2023-02-26T20:48:22;60944.00;;;-147.45;100.00
43326;BME280;28920;59.862;30.636;2023-02-26T20:50:50;60944.00;;;-147.45;100.00
43326;BME280;28920;59.862;30.636;2023-02-26T20:53:20;60944.00;;;-147.45;100.00
43326;BME280;28920;59.862;30.636;2023-02-26T20:55:48;60944.00;;;-147.45;100.00
43326;BME280;28920;59.862;30.636;2023-02-26T20:58:16;60944.00;;;-147.45;100.00
43326;BME280;28920;59.862;30.636;2023-02-26T21:00:44;60944.00;;;-147.45;100.00
43326;BME280;28920;59.862;30.636;2023-02-26T21:03:12;60944.00;;;-147.45;100.00
43326;BME280;28920;59.862;30.636;2023-02-26T21:05:39;60944.00;;;-147.45;100.00
43326;BME280;28920;59.862;30.636;2023-02-26T21:08:08;60944.00;;;-147.45;100.00
43326;BME280;28920;59.862;30.636;2023-02-26T21:10:36;60944.00;;;-147.45;100.00
43326;BME280;28920;59.862;30.636;2023-02-26T21:13:04;60944.00;;;-147.45;100.00
43326;BME280;28920;59.862;30.636;2023-02-26T21:15:32;60944.00;;;-147.45;100.00
43326;BME280;28920;59.862;30.636;2023-02-26T21:18:00;60944.00;;;-147.45;100.00
43326;BME280;28920;59.862;30.636;2023-02-26T21:20:27;60944.00;;;-147.45;100.00
43326;BME280;28920;59.862;30.636;2023-02-26T21:22:54;60944.00;;;-147.45;100.00
43326;BME280;28920;59.862;30.636;2023-02-26T21:25:22;60944.00;;;-147.45;100.00
43326;BME280;28920;59.862;30.636;2023-02-26T21:27:49;60944.00;;;-147.45;100.00
43326;BME280;28920;59.862;30.636;2023-02-26T21:30:17;60944.00;;;-147.45;100.00
43326;BME280;28920;59.862;30.636;2023-02-26T21:32:46;60944.00;;;-147.45;100.00
43326;BME280;28920;59.862;30.636;2023-02-26T21:35:13;60944.00;;;-147.45;100.00
43326;BME280;28920;59.862;30.636;2023-02-26T21:37:42;60944.00;;;-147.45;100.00
43326;BME280;28920;59.862;30.636;2023-02-26T21:40:11;60944.00;;;-147.45;100.00
43326;BME280;28920;59.862;30.636;2023-02-26T21:42:39;60944.00;;;-147.45;100.00
43326;BME280;28920;59.862;30.636;2023-02-26T21:45:08;60944.00;;;-147.45;100.00
43326;BME280;28920;59.862;30.636;2023-02-26T21:47:36;60944.00;;;-147.45;100.00
43326;BME280;28920;59.862;30.636;2023-02-26T21:50:04;60944.00;;;-147.45;100.00
43326;BME280;28920;59.862;30.636;2023-02-26T21:52:32;60944.00;;;-147.45;100.00
43326;BME280;28920;59.862;30.636;2023-02-26T21:54:59;60944.00;;;-147.45;100.00
43326;BME280;28920;59.862;30.636;2023-02-26T21:57:27;60944.00;;;-147.45;100.00
43326;BME280;28920;59.862;30.636;2023-02-26T21:59:54;60944.00;;;-147.45;100.00
43326;BME280;28920;59.862;30.636;2023-02-26T22:02:21;60944.00;;;-147.45;100.00
43326;BME280;28920;59.862;30.636;2023-02-26T22:04:49;60944.00;;;-147.45;100.00
43326;BME280;28920;59.862;30.636;2023-02-26T22:07:17;60944.00;;;-147.45;100.00
43326;BME280;28920;59.862;30.636;2023-02-26T22:09:48;60944.00;;;-147.45;100.00
43326;BME280;28920;59.862;30.636;2023-02-26T22:12:17;60944.00;;;-147.45;100.00
43326;BME280;28920;59.862;30.636;2023-02-26T22:14:45;60944.00;;;-147.45;100.00
43326;BME280;28920;59.862;30.636;2023-02-26T22:17:14;60944.00;;;-147.45;100.00
43326;BME280;28920;59.862;30.636;2023-02-26T22:19:42;60944.00;;;-147.45;100.00
43326;BME280;28920;59.862;30.636;2023-02-26T22:22:09;60944.00;;;-147.45;100.00
43326;BME280;28920;59.862;30.636;2023-02-26T22:24:37;60944.00;;;-147.45;100.00
43326;BME280;28920;59.862;30.636;2023-02-26T22:27:06;60944.00;;;-147.45;100.00
43326;BME280;28920;59.862;30.636;2023-02-26T22:29:34;60944.00;;;-147.45;100.00
43326;BME280;28920;59.862;30.636;2023-02-26T22:32:01;60944.00;;;-147.45;100.00
43326;BME280;28920;59.862;30.636;2023-02-26T22:34:29;60944.00;;;-147.45;100.00
43326;BME280;28920;59.862;30.636;2023-02-26T22:36:59;60944.00;;;-147.45;100.00
43326;BME280;28920;59.862;30.636;2023-02-26T22:39:27;60944.00;;;-147.45;100.00
43326;BME280;28920;59.862;30.636;2023-02-26T22:41:55;60944.00;;;-147.45;100.00
43326;BME280;28920;59.862;30.636;2023-02-26T22:44:22;60944.00;;;-147.45;100.00
43326;BME280;28920;59.862;30.636;2023-02-26T22:46:49;60944.00;;;-147.45;100.00
43326;BME280;28920;59.862;30.636;2023-02-26T22:49:17;60944.00;;;-147.45;100.00
43326;BME280;28920;59.862;30.636;2023-02-26T22:51:44;60944.00;;;-147.45;100.00
43326;BME280;28920;59.862;30.636;2023-02-26T22:54:11;60944.00;;;-147.45;100.00
43326;BME280;28920;59.862;30.636;2023-02-26T22:56:39;60944.00;;;-147.45;100.00
43326;BME280;28920;59.862;30.636;2023-02-26T22:59:07;60944.00;;;-147.45;100.00
43326;BME280;28920;59.862;30.636;2023-02-26T23:01:34;60944.00;;;-147.45;100.00
43326;BME280;28920;59.862;30.636;2023-02-26T23:04:01;60944.00;;;-147.45;100.00
43326;BME280;28920;59.862;30.636;2023-02-26T23:06:28;60944.00;;;-147.45;100.00
43326;BME280;28920;59.862;30.636;2023-02-26T23:08:56;60944.00;;;-147.45;100.00
43326;BME280;28920;59.862;30.636;2023-02-26T23:11:23;60944.00;;;-147.45;100.00
43326;BME280;28920;59.862;30.636;2023-02-26T23:13:50;60944.00;;;-147.45;100.00
43326;BME280;28920;59.862;30.636;2023-02-26T23:16:18;60944.00;;;-147.45;100.00
43326;BME280;28920;59.862;30.636;2023-02-26T23:18:46;60944.00;;;-147.45;100.00
43326;BME280;28920;59.862;30.636;2023-02-26T23:21:13;60944.00;;;-147.45;100.00
43326;BME280;28920;59.862;30.636;2023-02-26T23:23:41;60944.00;;;-147.45;100.00
43326;BME280;28920;59.862;30.636;2023-02-26T23:26:10;60944.00;;;-147.45;100.00
43326;BME280;28920;59.862;30.636;2023-02-26T23:28:37;60944.00;;;-147.45;100.00
43326;BME280;28920;59.862;30.636;2023-02-26T23:31:04;60944.00;;;-147.45;100.00
43326;BME280;28920;59.862;30.636;2023-02-26T23:33:32;60944.00;;;-147.45;100.00
43326;BME280;28920;59.862;30.636;2023-02-26T23:36:00;60944.00;;;-147.45;100.00
43326;BME280;28920;59.862;30.636;2023-02-26T23:38:27;60944.00;;;-147.45;100.00
43326;BME280;28920;59.862;30.636;2023-02-26T23:40:54;60944.00;;;-147.45;100.00
43326;BME280;28920;59.862;30.636;2023-02-26T23:43:22;60944.00;;;-147.45;100.00
43326;BME280;28920;59.862;30.636;2023-02-26T23:45:50;60944.00;;;-147.45;100.00
43326;BME280;28920;59.862;30.636;2023-02-26T23:48:17;60944.00;;;-147.45;100.00
43326;BME280;28920;59.862;30.636;2023-02-26T23:50:47;60944.00;;;-147.45;100.00
43326;BME280;28920;59.862;30.636;2023-02-26T23:53:14;60944.00;;;-147.45;100.00
43326;BME280;28920;59.862;30.636;2023-02-26T23:55:42;60944.00;;;-147.45;100.00
43326;BME280;28920;59.862;30.636;2023-02-26T23:58:09;60944.00;;;-147.45;100.00
